createdAt,value
2022-08-10T00:03:10.210Z,100918.09
2022-08-10T00:08:10.400Z,100923.66
2022-08-10T00:13:09.549Z,100919.06
2022-08-10T00:18:08.312Z,100913.84
2022-08-10T00:23:07.114Z,100910.13
2022-08-10T00:28:07.400Z,100913.38
2022-08-10T00:33:06.283Z,100919.63
2022-08-10T00:38:05.798Z,100915.88
2022-08-10T00:43:06.279Z,100912.25
2022-08-10T00:48:05.778Z,100903.00
2022-08-10T00:53:04.937Z,100912.19
2022-08-10T00:58:04.110Z,100915.97
2022-08-10T01:03:04.426Z,100901.16
2022-08-10T01:08:20.901Z,100913.66
2022-08-10T01:13:25.144Z,100928.09
2022-08-10T01:18:37.806Z,100939.69
2022-08-10T01:23:59.129Z,100946.06
2022-08-10T01:29:13.508Z,100950.91
2022-08-10T01:34:20.455Z,100952.38
2022-08-10T01:39:25.453Z,100959.81
2022-08-10T01:44:30.681Z,100973.66
2022-08-10T01:49:32.843Z,100976.91
2022-08-10T01:54:32.476Z,100977.34
2022-08-10T01:59:35.205Z,100991.81
2022-08-10T02:04:38.445Z,101019.44
2022-08-10T02:09:40.487Z,101023.97
2022-08-10T02:14:46.274Z,101027.97
2022-08-10T02:19:48.491Z,101028.66
2022-08-10T02:24:48.499Z,101026.28
2022-08-10T02:29:49.062Z,101027.97
2022-08-10T02:34:51.589Z,101036.84
2022-08-10T02:39:50.560Z,101038.16
2022-08-10T02:45:22.446Z,101046.28
2022-08-10T02:50:23.942Z,101035.03
2022-08-10T02:55:29.105Z,101041.47
2022-08-10T03:00:32.517Z,101046.69
2022-08-10T03:05:33.618Z,101054.28
2022-08-10T03:10:36.494Z,101062.63
2022-08-10T03:15:39.931Z,101070.50
2022-08-10T03:20:42.945Z,101077.22
2022-08-10T03:25:53.647Z,101069.81
2022-08-10T03:30:54.746Z,101082.34
2022-08-10T03:36:44.155Z,101084.16
2022-08-10T03:41:16.731Z,101090.00
2022-08-10T03:46:19.623Z,101084.97
2022-08-10T03:51:20.586Z,101098.03
2022-08-10T03:56:29.093Z,101096.94
2022-08-10T04:02:41.419Z,101098.22
2022-08-10T04:06:54.514Z,101109.53
2022-08-10T04:11:54.580Z,101112.19
2022-08-10T04:16:53.463Z,101112.75
2022-08-10T04:22:01.396Z,101100.38
2022-08-10T04:27:00.264Z,101106.06
2022-08-10T04:32:01.019Z,101117.09
2022-08-10T04:37:08.762Z,101111.59
2022-08-10T04:42:08.718Z,101126.59
2022-08-10T04:47:08.032Z,101124.06
2022-08-10T04:52:08.374Z,101122.25
2022-08-10T04:57:07.419Z,101122.44
2022-08-10T05:02:22.003Z,101121.50
2022-08-10T05:07:26.583Z,101117.53
2022-08-10T05:12:25.562Z,101118.53
2022-08-10T05:17:25.074Z,101121.41
2022-08-10T05:22:24.056Z,101126.81
2022-08-10T05:27:24.300Z,101130.59
2022-08-10T05:32:23.206Z,101126.81
2022-08-10T05:38:09.731Z,101131.34
2022-08-10T05:42:43.330Z,101127.38
2022-08-10T05:48:41.597Z,101129.75
2022-08-10T05:53:05.803Z,101124.63
2022-08-10T05:58:21.509Z,101118.09
2022-08-10T06:03:25.118Z,101131.47
2022-08-10T06:08:26.923Z,101126.00
2022-08-10T06:13:59.555Z,101118.75
2022-08-10T06:19:03.377Z,101119.56
2022-08-10T06:24:03.378Z,101119.13
2022-08-10T06:29:09.382Z,101121.34
2022-08-10T06:34:11.036Z,101111.25
2022-08-10T06:39:31.769Z,101120.06
2022-08-10T06:44:41.605Z,101114.53
2022-08-10T06:49:43.995Z,101129.97
2022-08-10T06:54:45.896Z,101124.09
2022-08-10T06:59:49.042Z,101115.16
2022-08-10T07:04:57.524Z,101122.78
2022-08-10T07:09:57.831Z,101121.22
2022-08-10T07:15:09.657Z,101120.31
2022-08-10T07:20:15.140Z,101106.19
2022-08-10T07:25:17.303Z,101120.69
2022-08-10T07:30:17.810Z,101116.91
2022-08-10T07:35:24.012Z,101118.00
2022-08-10T07:40:26.018Z,101119.91
2022-08-10T07:45:29.839Z,101118.78
2022-08-10T07:50:33.117Z,101126.63
2022-08-10T07:56:04.912Z,101125.72
2022-08-10T08:01:07.602Z,101120.50
2022-08-10T08:06:11.581Z,101109.47
2022-08-10T08:11:26.255Z,101098.00
2022-08-10T08:16:27.885Z,101098.56
2022-08-10T08:24:30.227Z,101096.03
2022-08-10T08:26:52.514Z,101094.63
2022-08-10T08:32:02.472Z,101104.28
2022-08-10T08:37:05.187Z,101097.47
2022-08-10T08:42:23.240Z,101101.38
2022-08-10T08:48:03.714Z,101090.06
2022-08-10T08:53:21.996Z,101094.53
2022-08-10T08:58:50.384Z,101091.09
2022-08-10T09:04:19.854Z,101080.75
2022-08-10T09:09:33.633Z,101079.38
2022-08-10T09:14:44.348Z,101092.16
2022-08-10T09:20:05.192Z,101074.59
2022-08-10T09:25:20.296Z,101085.63
2022-08-10T09:30:36.953Z,101085.03
2022-08-10T09:36:26.999Z,101084.53
2022-08-10T09:41:27.570Z,101087.31
2022-08-10T09:46:41.128Z,101073.38
2022-08-10T09:51:51.669Z,101072.09
2022-08-10T09:57:17.840Z,101069.78
2022-08-10T10:02:27.838Z,101075.47
2022-08-10T10:07:29.873Z,101072.53
2022-08-10T10:12:38.201Z,101062.63
2022-08-10T10:17:45.044Z,101058.09
2022-08-10T10:22:58.833Z,101059.19
2022-08-10T10:28:13.475Z,101061.66
2022-08-10T10:33:16.644Z,101046.72
2022-08-10T10:38:18.497Z,101043.38
2022-08-10T10:43:30.809Z,101029.75
2022-08-10T10:48:39.836Z,101027.72
2022-08-10T10:53:45.739Z,101012.22
2022-08-10T10:58:58.709Z,101020.78
2022-08-10T11:04:12.081Z,101012.44
2022-08-10T11:10:04.683Z,101013.34
2022-08-10T11:14:42.658Z,101008.13
2022-08-10T11:20:01.326Z,101014.44
2022-08-10T11:25:12.974Z,101004.28
2022-08-10T11:30:16.299Z,101008.66
2022-08-10T11:35:29.499Z,101000.25
2022-08-10T11:40:38.768Z,100987.00
2022-08-10T11:45:52.181Z,100985.38
2022-08-10T11:50:58.983Z,100968.38
2022-08-10T11:56:03.615Z,100972.56
2022-08-10T12:01:11.867Z,100969.03
2022-08-10T12:06:14.826Z,100967.06
2022-08-10T12:11:24.707Z,100961.81
2022-08-10T12:16:29.829Z,100963.78
2022-08-10T12:21:36.969Z,100949.69
2022-08-10T12:26:43.678Z,100958.13
2022-08-10T12:31:47.674Z,100955.25
2022-08-10T12:36:55.652Z,100955.06
2022-08-10T12:42:02.175Z,100948.56
2022-08-10T12:47:13.996Z,100951.75
2022-08-10T12:52:21.095Z,100964.72
2022-08-10T12:57:25.839Z,100949.84
2022-08-10T13:02:27.743Z,100948.75
2022-08-10T13:08:24.579Z,100940.13
2022-08-10T13:12:56.478Z,100937.22
2022-08-10T13:18:00.724Z,100932.56
2022-08-10T13:23:01.555Z,100924.41
2022-08-10T13:28:37.573Z,100919.09
2022-08-10T13:34:39.999Z,100906.78
2022-08-10T13:38:50.007Z,100910.47
2022-08-10T13:43:53.838Z,100907.22
2022-08-10T13:48:54.323Z,100914.50
2022-08-10T13:53:58.459Z,100907.13
2022-08-10T13:59:00.058Z,100887.19
2022-08-10T14:04:02.378Z,100897.16
2022-08-10T14:09:06.187Z,100901.91
2022-08-10T14:14:11.183Z,100897.41
2022-08-10T14:19:15.753Z,100900.59
2022-08-10T14:24:22.760Z,100899.28
2022-08-10T14:29:25.119Z,100896.00
2022-08-10T14:36:05.018Z,100906.69
2022-08-10T14:39:52.558Z,100899.88
2022-08-10T14:44:56.782Z,100903.41
2022-08-10T14:49:58.557Z,100897.50
2022-08-10T14:55:19.146Z,100908.59
2022-08-10T15:00:31.675Z,100910.59
2022-08-10T15:05:41.766Z,100910.22
2022-08-10T15:10:44.935Z,100915.00
2022-08-10T15:16:12.521Z,100914.75
2022-08-10T15:21:17.292Z,100918.88
2022-08-10T15:26:26.647Z,100917.16
2022-08-10T15:31:29.313Z,100913.41
2022-08-10T15:37:02.215Z,100916.00
2022-08-10T15:42:11.612Z,100910.84
2022-08-10T15:47:26.704Z,100911.75
2022-08-10T15:52:39.300Z,100911.00
2022-08-10T15:58:03.024Z,100915.56
2022-08-10T16:03:13.170Z,100920.50
2022-08-10T16:08:17.756Z,100937.22
2022-08-10T16:13:50.555Z,100931.25
2022-08-10T16:18:55.750Z,100945.84
2022-08-10T16:24:12.712Z,100950.38
2022-08-10T16:29:18.806Z,100971.84
2022-08-10T16:34:21.699Z,100962.19
2022-08-10T16:40:00.225Z,100976.72
2022-08-10T16:44:51.347Z,100970.84
2022-08-10T16:49:54.038Z,100976.28
2022-08-10T16:54:54.906Z,100993.28
2022-08-10T16:59:54.696Z,100999.09
2022-08-10T17:04:56.959Z,101011.38
2022-08-10T17:09:57.906Z,101005.13
2022-08-10T17:14:59.780Z,101018.66
2022-08-10T17:20:31.095Z,101017.13
2022-08-10T17:25:48.586Z,101016.03
2022-08-10T17:30:58.152Z,101021.75
2022-08-10T17:36:05.018Z,101030.94
2022-08-10T17:41:10.940Z,101032.53
2022-08-10T17:46:11.940Z,101039.91
2022-08-10T17:51:16.210Z,101060.03
2022-08-10T17:56:17.046Z,101057.91
2022-08-10T18:01:40.365Z,101059.56
2022-08-10T18:06:42.445Z,101076.66
2022-08-10T18:11:44.831Z,101083.53
2022-08-10T18:16:45.170Z,101097.44
2022-08-10T18:21:49.243Z,101099.97
2022-08-10T18:26:52.007Z,101130.91
2022-08-10T18:31:57.311Z,101131.09
2022-08-10T18:36:58.482Z,101139.53
2022-08-10T18:42:05.544Z,101146.47
2022-08-10T18:47:14.072Z,101148.16
2022-08-10T18:52:17.135Z,101140.38
2022-08-10T18:57:30.722Z,101144.44
2022-08-10T19:02:53.917Z,101139.09
2022-08-10T19:08:30.823Z,101134.41
2022-08-10T19:13:35.060Z,101140.78
2022-08-10T19:18:38.473Z,101146.22
2022-08-10T19:24:01.358Z,101138.97
2022-08-10T19:29:08.837Z,101136.47
2022-08-10T19:34:24.488Z,101134.25
2022-08-10T19:39:51.043Z,101135.09
2022-08-10T19:44:59.096Z,101126.66
2022-08-10T19:50:03.512Z,101124.94
2022-08-10T19:55:15.160Z,101125.88
2022-08-10T20:00:21.746Z,101132.94
2022-08-10T20:05:31.282Z,101131.91
2022-08-10T20:10:38.437Z,101143.06
2022-08-10T20:15:42.611Z,101141.34
2022-08-10T20:20:49.521Z,101142.38
2022-08-10T20:25:56.231Z,101143.72
2022-08-10T20:31:03.877Z,101144.25
2022-08-10T20:36:06.024Z,101132.50
2022-08-10T20:41:17.654Z,101136.56
2022-08-10T20:46:27.754Z,101145.28
2022-08-10T20:51:58.529Z,101146.94
2022-08-10T20:57:55.192Z,101134.00
2022-08-10T21:02:49.102Z,101133.34
2022-08-10T21:08:01.648Z,101134.19
2022-08-10T21:13:21.496Z,101131.50
2022-08-10T21:18:30.963Z,101125.09
2022-08-10T21:23:32.670Z,101118.81
2022-08-10T21:28:51.731Z,101123.38
2022-08-10T21:34:04.535Z,101117.84
2022-08-10T21:39:13.795Z,101109.88
2022-08-10T21:44:42.841Z,101120.53
2022-08-10T21:50:11.066Z,101117.25
2022-08-10T21:55:57.118Z,101115.88
2022-08-10T22:01:21.586Z,101116.72
2022-08-10T22:07:00.824Z,101104.28
2022-08-10T22:12:24.896Z,101108.31
2022-08-10T22:18:10.026Z,101099.88
2022-08-10T22:24:16.597Z,101090.75
2022-08-10T22:29:42.292Z,101098.75
2022-08-10T22:35:15.645Z,101103.19
2022-08-10T22:40:36.938Z,101100.28
2022-08-10T22:45:54.820Z,101099.81
2022-08-10T22:51:02.378Z,101092.25
2022-08-10T22:56:18.847Z,101086.38
2022-08-10T23:01:40.609Z,101086.53
2022-08-10T23:06:42.100Z,101083.25
2022-08-10T23:11:44.085Z,101077.31
2022-08-10T23:17:03.105Z,101073.78
2022-08-10T23:22:08.444Z,101075.06
2022-08-10T23:27:13.273Z,101072.88
2022-08-10T23:32:32.817Z,101080.78
2022-08-10T23:37:36.260Z,101080.47
2022-08-10T23:42:39.239Z,101068.84
2022-08-10T23:47:42.870Z,101066.88
2022-08-10T23:52:52.625Z,101064.47
2022-08-10T23:57:55.483Z,101065.16
